Time;durP1;ratioP1;P1;durP2;ratioP2;P2;SDS_P1;SDS_P2;PMS_P1;PMS_P2;Temp;Humidity;BMP_temperature;BMP_pressure;BME280_temperature;BME280_humidity;BME280_pressure;Samples;Min_cycle;Max_cycle;Signal;HPM_P1;HPM_P2
2022/09/01 00:01:48;;;;;;;12.38;9.77;;;;;;;19.06;65.13;95273.63;5046793;28;20021;-84
2022/09/01 00:04:18;;;;;;;14.60;10.48;;;;;;;19.02;65.27;95273.28;5045879;28;20040;-84
2022/09/01 00:06:45;;;;;;;13.45;9.88;;;;;;;19.00;65.30;95275.41;5047269;28;20037;-84
2022/09/01 00:09:15;;;;;;;15.82;10.07;;;;;;;19.02;65.15;95270.56;5046325;28;20025;-84
2022/09/01 00:11:41;;;;;;;21.17;10.57;;;;;;;18.99;65.52;95260.16;5046403;28;20499;-84
2022/09/01 00:14:07;;;;;;;11.23;9.93;;;;;;;18.99;65.59;95260.97;5044958;28;20021;-84
2022/09/01 00:16:33;;;;;;;13.70;10.13;;;;;;;18.94;65.73;95262.75;5045984;28;20415;-84
2022/09/01 00:18:58;;;;;;;11.35;10.13;;;;;;;18.94;65.78;95269.03;5046679;28;20119;-85
2022/09/01 00:21:33;;;;;;;13.75;10.02;;;;;;;18.95;65.80;95265.22;5046197;28;20033;-85
2022/09/01 00:23:59;;;;;;;14.93;10.30;;;;;;;18.91;65.88;95269.47;5046661;28;20078;-84
2022/09/01 00:26:24;;;;;;;13.02;10.25;;;;;;;18.84;65.88;95266.03;5045920;28;20098;-84
2022/09/01 00:28:50;;;;;;;16.00;10.40;;;;;;;18.81;65.68;95270.06;5046184;28;20458;-84
2022/09/01 00:31:15;;;;;;;14.15;9.88;;;;;;;18.74;66.03;95261.19;5045781;28;20029;-84
2022/09/01 00:33:41;;;;;;;12.80;10.48;;;;;;;18.76;66.35;95269.94;5046006;28;20036;-84
2022/09/01 00:36:06;;;;;;;17.70;11.48;;;;;;;18.63;66.46;95273.69;5046480;28;20029;-84
2022/09/01 00:38:32;;;;;;;12.07;10.80;;;;;;;18.60;65.88;95274.97;5045447;28;20039;-84
2022/09/01 00:40:59;;;;;;;16.38;10.40;;;;;;;18.58;65.90;95271.66;5046211;28;20045;-84
2022/09/01 00:43:47;;;;;;;13.13;10.30;;;;;;;18.52;65.75;95275.31;5045383;28;20515;-84
2022/09/01 00:46:23;;;;;;;12.10;10.43;;;;;;;18.55;65.10;95274.84;5044364;28;20572;-84
2022/09/01 00:49:01;;;;;;;14.13;10.02;;;;;;;18.51;65.22;95265.47;5046169;28;20021;-83
2022/09/01 00:51:27;;;;;;;14.27;10.32;;;;;;;18.50;65.53;95280.13;5027862;28;20112;-83
2022/09/01 00:53:54;;;;;;;15.85;10.23;;;;;;;18.47;65.69;95269.72;5045097;28;20554;-83
2022/09/01 00:56:20;;;;;;;13.63;10.65;;;;;;;18.49;65.67;95278.47;5045129;28;20037;-83
2022/09/01 00:58:46;;;;;;;13.55;10.52;;;;;;;18.43;65.50;95282.94;5045945;28;20071;-83
2022/09/01 01:01:11;;;;;;;13.85;10.55;;;;;;;18.34;65.68;95285.16;5044847;28;20025;-83
2022/09/01 01:03:38;;;;;;;14.43;10.45;;;;;;;18.37;65.65;95292.00;5045867;28;20209;-83
2022/09/01 01:06:07;;;;;;;13.23;10.55;;;;;;;18.40;65.60;95291.53;5045432;28;20141;-83
2022/09/01 01:08:33;;;;;;;13.60;10.35;;;;;;;18.34;65.82;95296.00;5044073;28;20025;-83
2022/09/01 01:11:08;;;;;;;13.85;10.73;;;;;;;18.33;66.02;95294.34;5045944;28;20028;-83
2022/09/01 01:13:50;;;;;;;15.05;11.05;;;;;;;18.27;66.50;95285.25;5045045;28;20029;-83
2022/09/01 01:16:15;;;;;;;13.00;10.80;;;;;;;18.31;66.05;95277.47;5044489;28;20029;-83
2022/09/01 01:18:41;;;;;;;14.63;10.55;;;;;;;18.31;66.01;95272.03;5045389;28;20047;-85
2022/09/01 01:24:01;;;;;;;16.40;10.73;;;;;;;18.27;65.91;95268.13;5044929;28;20041;-82
2022/09/01 01:26:27;;;;;;;15.02;10.05;;;;;;;18.20;66.03;95261.97;5043510;28;20025;-85
2022/09/01 01:28:53;;;;;;;11.90;10.25;;;;;;;18.24;65.95;95271.28;5045794;28;20017;-83
2022/09/01 01:31:21;;;;;;;13.60;10.55;;;;;;;18.27;66.36;95276.25;5044804;28;20059;-83
2022/09/01 01:33:51;;;;;;;13.13;10.85;;;;;;;18.32;66.26;95270.97;5045563;28;20028;-83
2022/09/01 01:36:35;;;;;;;15.48;10.63;;;;;;;18.33;66.38;95278.06;5045024;28;20064;-83
2022/09/01 01:39:24;;;;;;;18.42;10.98;;;;;;;18.24;66.67;95271.28;5048756;28;20031;-83
2022/09/01 01:41:50;;;;;;;12.77;10.52;;;;;;;18.33;66.06;95275.34;5049524;28;20060;-83
2022/09/01 01:44:17;;;;;;;14.25;10.60;;;;;;;18.35;66.56;95285.97;5048655;28;20041;-83
2022/09/01 01:46:49;;;;;;;16.15;10.88;;;;;;;18.34;65.96;95285.16;5049353;28;20036;-84
2022/09/01 01:49:18;;;;;;;18.08;13.68;;;;;;;18.32;68.30;95292.69;5048917;28;20127;-84
2022/09/01 01:51:44;;;;;;;19.27;13.23;;;;;;;18.30;68.88;95292.09;5048896;28;20029;-84
2022/09/01 01:54:09;;;;;;;14.20;11.30;;;;;;;18.35;67.76;95299.53;5049530;28;20044;-83
2022/09/01 01:56:37;;;;;;;16.10;11.55;;;;;;;18.37;68.04;95302.88;5048345;28;20028;-83
2022/09/01 01:59:03;;;;;;;15.05;11.95;;;;;;;18.32;67.99;95306.28;5049522;28;20028;-83
2022/09/01 02:01:30;;;;;;;15.80;11.98;;;;;;;18.33;68.49;95307.09;5048103;28;20557;-83
2022/09/01 02:03:56;;;;;;;15.75;12.07;;;;;;;18.18;68.85;95312.94;5048866;28;20079;-83
2022/09/01 02:06:23;;;;;;;13.93;11.02;;;;;;;18.18;68.53;95315.63;5048448;28;20288;-83
2022/09/01 02:08:51;;;;;;;17.33;12.52;;;;;;;18.21;68.49;95310.59;5048772;28;20021;-83
2022/09/01 02:11:16;;;;;;;17.20;12.52;;;;;;;18.26;69.92;95318.88;5048707;28;20040;-84
2022/09/01 02:13:43;;;;;;;15.88;13.40;;;;;;;18.22;70.29;95325.81;5048389;28;20057;-84
2022/09/01 02:16:11;;;;;;;18.30;12.63;;;;;;;18.17;69.53;95320.22;5049023;28;20025;-83
2022/09/01 02:18:41;;;;;;;17.17;12.60;;;;;;;18.15;69.88;95315.03;5047863;28;20025;-84
2022/09/01 02:21:10;;;;;;;17.77;12.98;;;;;;;18.14;70.51;95316.09;5047531;28;20422;-83
2022/09/01 02:23:36;;;;;;;21.55;13.93;;;;;;;18.15;70.73;95323.19;5048034;28;20086;-83
2022/09/01 02:26:05;;;;;;;27.48;14.95;;;;;;;18.18;71.23;95305.63;5048804;28;20108;-83
2022/09/01 02:28:33;;;;;;;24.13;13.75;;;;;;;18.23;70.95;95318.50;5048307;28;20067;-83
2022/09/01 02:31:01;;;;;;;19.20;14.18;;;;;;;18.23;71.54;95313.06;5047913;28;20053;-83
2022/09/01 02:33:27;;;;;;;22.17;14.27;;;;;;;18.12;71.79;95312.78;5048844;28;20164;-84
2022/09/01 02:35:54;;;;;;;23.23;14.02;;;;;;;18.07;71.33;95309.06;5047940;28;20108;-83
2022/09/01 02:38:21;;;;;;;20.13;13.90;;;;;;;18.11;71.79;95310.25;5048787;28;20021;-83
2022/09/01 02:40:47;;;;;;;21.00;14.75;;;;;;;17.97;72.64;95305.00;5047389;28;20052;-83
2022/09/01 02:43:15;;;;;;;20.77;14.63;;;;;;;17.96;72.73;95297.09;5048211;28;20087;-83
2022/09/01 02:45:43;;;;;;;23.70;15.15;;;;;;;17.96;72.47;95297.91;5047668;28;20033;-83
2022/09/01 02:48:09;;;;;;;19.75;13.88;;;;;;;18.01;72.61;95297.22;5047345;28;20418;-83
2022/09/01 02:50:38;;;;;;;22.60;14.73;;;;;;;18.11;73.04;95288.56;5047870;28;20104;-84
2022/09/01 02:53:08;;;;;;;18.60;14.10;;;;;;;18.16;72.80;95295.00;5047576;28;20021;-83
2022/09/01 02:55:35;;;;;;;20.83;14.95;;;;;;;18.12;72.85;95290.25;5048336;28;20032;-84
2022/09/01 02:58:01;;;;;;;28.58;16.17;;;;;;;18.10;72.94;95295.03;5047391;28;20028;-83
2022/09/01 03:00:30;;;;;;;28.77;15.65;;;;;;;18.15;72.58;95285.19;5047993;28;20537;-83
2022/09/01 03:02:56;;;;;;;29.73;15.75;;;;;;;18.17;71.86;95295.81;5047615;28;20037;-83
2022/09/01 03:05:28;;;;;;;28.27;16.35;;;;;;;18.22;71.77;95301.38;5047854;28;20036;-83
2022/09/01 03:07:56;;;;;;;29.00;17.20;;;;;;;18.19;72.20;95301.84;5047820;28;20511;-83
2022/09/01 03:10:31;;;;;;;32.15;16.25;;;;;;;18.16;72.02;95300.41;5047167;28;20037;-83
2022/09/01 03:13:10;;;;;;;21.70;15.07;;;;;;;18.22;71.66;95292.41;5048119;28;20391;-83
2022/09/01 03:15:36;;;;;;;25.15;15.05;;;;;;;18.24;71.81;95298.44;5046850;28;20322;-83
2022/09/01 03:18:02;;;;;;;28.45;15.57;;;;;;;18.27;71.58;95300.69;5047560;28;20032;-82
2022/09/01 03:20:29;;;;;;;24.20;15.07;;;;;;;18.28;71.72;95294.22;5047584;28;20513;-82
2022/09/01 03:22:56;;;;;;;27.08;15.50;;;;;;;18.34;71.69;95298.72;5046945;28;20353;-82
2022/09/01 03:25:23;;;;;;;26.48;15.45;;;;;;;18.26;71.60;95296.34;5047883;28;20029;-82
2022/09/01 03:27:50;;;;;;;24.15;15.77;;;;;;;18.23;71.89;95294.88;5046537;28;20112;-83
2022/09/01 03:30:15;;;;;;;28.92;16.30;;;;;;;18.22;72.05;95301.38;5047975;28;20027;-82
2022/09/01 03:32:41;;;;;;;26.70;15.57;;;;;;;18.23;71.72;95304.94;5046888;28;20029;-83
2022/09/01 03:35:08;;;;;;;26.23;15.43;;;;;;;18.22;71.83;95301.38;5047297;28;20029;-82
2022/09/01 03:37:35;;;;;;;29.48;15.80;;;;;;;18.23;71.41;95308.47;5046845;28;20029;-83
2022/09/01 03:40:03;;;;;;;23.70;15.10;;;;;;;18.24;71.24;95298.44;5046738;28;20047;-83
2022/09/01 03:42:29;;;;;;;25.98;14.40;;;;;;;18.20;71.61;95300.78;5047355;28;20032;-83
2022/09/01 03:44:56;;;;;;;22.35;14.55;;;;;;;18.20;71.42;95303.50;5046138;28;20472;-83
2022/09/01 03:47:22;;;;;;;30.58;14.70;;;;;;;18.14;71.19;95297.09;5047331;28;20483;-83
2022/09/01 03:49:48;;;;;;;24.77;14.68;;;;;;;18.17;71.28;95298.50;5051860;28;20074;-82
2022/09/01 03:52:16;;;;;;;20.95;14.15;;;;;;;18.15;71.15;95301.47;5052958;28;20025;-83
2022/09/01 03:54:42;;;;;;;21.15;13.70;;;;;;;18.12;71.26;95301.91;5046486;28;20067;-83
2022/09/01 03:57:09;;;;;;;22.45;13.85;;;;;;;18.11;71.24;95305.66;5046382;28;20556;-84
2022/09/01 03:59:34;;;;;;;18.52;13.20;;;;;;;18.11;71.44;95308.38;5046367;28;20487;-83
2022/09/01 04:02:01;;;;;;;18.38;13.18;;;;;;;18.12;71.63;95307.34;5045974;28;20473;-83
2022/09/01 04:04:30;;;;;;;18.80;14.15;;;;;;;18.03;71.32;95305.97;5047140;28;20408;-83
2022/09/01 04:06:55;;;;;;;22.92;14.20;;;;;;;18.05;71.28;95312.00;5045914;28;20178;-83
2022/09/01 04:09:21;;;;;;;21.65;13.52;;;;;;;18.02;71.09;95305.13;5046823;28;20555;-83
2022/09/01 04:11:47;;;;;;;31.20;14.50;;;;;;;17.94;71.39;95307.34;5045808;28;20029;-82
2022/09/01 04:14:12;;;;;;;25.42;15.30;;;;;;;17.99;71.10;95316.44;5046230;28;20492;-82
2022/09/01 04:19:26;;;;;;;25.50;14.63;;;;;;;17.99;70.96;95299.34;5046551;28;20248;-84
2022/09/01 04:21:53;;;;;;;25.85;15.65;;;;;;;18.04;71.51;95294.06;5046960;28;20038;-81
2022/09/01 04:24:19;;;;;;;22.77;15.07;;;;;;;17.97;72.06;95296.03;5046200;28;20037;-81
2022/09/01 04:26:47;;;;;;;23.65;14.13;;;;;;;18.01;71.35;95299.94;5052370;28;20059;-84
2022/09/01 04:29:13;;;;;;;23.90;15.48;;;;;;;18.01;71.31;95294.50;5045414;28;20112;-83
2022/09/01 04:31:39;;;;;;;21.20;14.50;;;;;;;17.97;71.63;95294.16;5046188;28;20108;-83
2022/09/01 04:34:12;;;;;;;20.20;13.98;;;;;;;18.01;71.66;95302.66;5045706;28;20029;-83
2022/09/01 04:36:40;;;;;;;21.10;14.77;;;;;;;17.98;71.73;95293.09;5045680;28;20033;-84
2022/09/01 04:39:07;;;;;;;23.80;14.18;;;;;;;18.02;71.75;95301.63;5045040;28;20044;-83
2022/09/01 04:41:36;;;;;;;21.38;14.02;;;;;;;18.04;71.43;95294.06;5045535;28;20060;-83
2022/09/01 04:44:03;;;;;;;21.23;14.65;;;;;;;18.06;71.27;95297.38;5046483;28;20027;-83
2022/09/01 04:46:30;;;;;;;22.52;14.38;;;;;;;18.04;71.57;95305.75;5046840;28;20032;-83
2022/09/01 04:48:56;;;;;;;18.27;13.65;;;;;;;18.09;70.95;95306.97;5046413;28;20032;-83
2022/09/01 04:51:26;;;;;;;16.65;13.20;;;;;;;18.10;70.73;95300.47;5046025;28;20029;-83
2022/09/01 04:53:56;;;;;;;18.98;12.50;;;;;;;17.95;71.09;95298.13;5045676;28;20470;-83
2022/09/01 04:56:22;;;;;;;19.70;13.68;;;;;;;17.96;70.78;95297.91;5046117;28;20056;-84
2022/09/01 04:58:50;;;;;;;19.50;14.05;;;;;;;17.94;71.08;95296.50;5045853;28;20104;-82
2022/09/01 05:01:21;;;;;;;17.95;13.38;;;;;;;17.94;71.08;95291.91;5046281;28;20029;-84
2022/09/01 05:03:50;;;;;;;19.08;13.27;;;;;;;17.92;71.18;95294.00;5047029;28;20033;-84
2022/09/01 05:06:17;;;;;;;18.13;14.07;;;;;;;17.89;71.90;95292.56;5046041;28;20499;-84
2022/09/01 05:08:44;;;;;;;18.10;13.70;;;;;;;17.95;71.89;95296.25;5045582;28;20094;-84
2022/09/01 05:11:10;;;;;;;21.65;14.02;;;;;;;17.94;72.17;95305.47;5046020;28;20483;-84
2022/09/01 05:13:39;;;;;;;21.45;13.43;;;;;;;17.95;71.67;95300.84;5049414;28;20021;-84
2022/09/01 05:16:11;;;;;;;18.70;13.35;;;;;;;18.02;72.18;95293.47;5049339;28;20100;-84
2022/09/01 05:18:46;;;;;;;18.48;14.20;;;;;;;18.01;71.47;95298.06;5050337;28;20025;-84
2022/09/01 05:21:13;;;;;;;20.25;14.15;;;;;;;18.04;71.81;95300.31;5049022;28;20032;-85
2022/09/01 05:23:39;;;;;;;16.85;13.05;;;;;;;18.07;71.84;95292.78;5049668;28;20082;-82
2022/09/01 05:26:13;;;;;;;18.90;13.80;;;;;;;18.10;71.42;95304.03;5049787;28;20114;-84
2022/09/01 05:28:40;;;;;;;18.02;14.18;;;;;;;18.14;71.18;95304.41;5049616;28;20511;-85
2022/09/01 05:31:06;;;;;;;19.73;13.50;;;;;;;18.16;71.22;95291.44;5049962;28;20063;-82
2022/09/01 05:33:35;;;;;;;21.08;15.13;;;;;;;18.21;71.21;95299.72;5048528;28;20100;-84
2022/09/01 05:36:00;;;;;;;24.90;15.13;;;;;;;18.14;71.21;95297.09;5049856;28;20415;-84
2022/09/01 05:38:26;;;;;;;17.30;13.80;;;;;;;18.09;71.51;95296.91;5048498;28;20033;-84
2022/09/01 05:41:03;;;;;;;21.27;14.25;;;;;;;18.15;71.41;95301.47;5049393;28;20063;-84
2022/09/01 05:43:29;;;;;;;20.92;14.73;;;;;;;18.09;71.41;95301.53;5049079;28;20029;-84
2022/09/01 05:45:57;;;;;;;22.25;15.65;;;;;;;18.08;71.16;95297.16;5049176;28;20037;-84
2022/09/01 05:48:22;;;;;;;22.58;14.95;;;;;;;18.17;71.01;95301.22;5050040;28;20029;-84
2022/09/01 05:50:49;;;;;;;19.90;14.60;;;;;;;18.22;70.94;95300.53;5049219;28;20403;-84
2022/09/01 05:53:16;;;;;;;21.35;14.52;;;;;;;18.28;70.55;95302.38;5049838;28;20507;-84
2022/09/01 05:55:45;;;;;;;20.00;14.82;;;;;;;18.33;69.88;95302.47;5048626;28;20029;-84
2022/09/01 05:58:15;;;;;;;22.98;15.25;;;;;;;18.31;71.02;95296.47;5049410;28;20115;-84
2022/09/01 06:00:47;;;;;;;22.75;15.25;;;;;;;18.15;71.12;95301.47;5048847;28;20048;-84
2022/09/01 06:03:13;;;;;;;21.90;15.57;;;;;;;18.08;71.63;95298.00;5048584;28;20523;-82
2022/09/01 06:05:38;;;;;;;20.73;15.20;;;;;;;18.07;71.68;95293.59;5049293;28;20033;-84
2022/09/01 06:08:04;;;;;;;22.23;14.82;;;;;;;18.11;71.64;95281.25;5048184;28;20025;-84
2022/09/01 06:10:31;;;;;;;24.88;15.95;;;;;;;18.23;70.99;95283.22;5049156;28;20029;-83
2022/09/01 06:13:01;;;;;;;21.45;15.70;;;;;;;18.24;70.67;95283.00;5048227;28;20029;-83
2022/09/01 06:15:29;;;;;;;24.98;15.68;;;;;;;18.20;71.27;95286.41;5049011;28;20025;-83
2022/09/01 06:17:56;;;;;;;21.35;15.90;;;;;;;18.33;70.43;95288.91;5048282;28;20031;-83
2022/09/01 06:20:22;;;;;;;23.42;15.70;;;;;;;18.40;70.02;95292.38;5048919;28;20068;-83
2022/09/01 06:22:47;;;;;;;24.13;15.70;;;;;;;18.43;69.88;95291.06;5047866;28;20056;-84
2022/09/01 06:25:16;;;;;;;27.73;18.77;;;;;;;18.50;69.99;95294.53;5048302;28;20502;-83
2022/09/01 06:27:43;;;;;;;24.77;16.55;;;;;;;18.46;69.98;95293.34;5048571;28;20024;-83
2022/09/01 06:30:19;;;;;;;21.98;16.70;;;;;;;18.58;69.79;95284.41;5047654;28;20029;-82
2022/09/01 06:32:45;;;;;;;23.60;17.65;;;;;;;18.56;70.36;95290.06;5048799;28;20028;-81
2022/09/01 06:35:11;;;;;;;26.38;17.15;;;;;;;18.65;69.60;95283.22;5047810;28;20535;-82
2022/09/01 06:37:38;;;;;;;24.65;17.40;;;;;;;18.75;69.53;95281.84;5048218;28;20082;-82
2022/09/01 06:40:04;;;;;;;23.15;16.73;;;;;;;18.81;69.49;95293.69;5047764;28;20025;-80
2022/09/01 06:42:33;;;;;;;26.50;19.00;;;;;;;18.92;69.69;95286.59;5048292;28;20025;-83
2022/09/01 06:45:00;;;;;;;28.35;19.33;;;;;;;18.82;69.44;95287.16;5048845;28;20498;-83
2022/09/01 06:47:27;;;;;;;25.80;17.98;;;;;;;18.83;69.56;95278.78;5047145;28;20468;-82
2022/09/01 06:49:57;;;;;;;23.02;17.30;;;;;;;18.94;69.65;95290.75;5048677;28;20025;-83
2022/09/01 06:52:23;;;;;;;26.42;18.70;;;;;;;18.99;69.41;95282.72;5047706;28;20499;-83
2022/09/01 06:54:50;;;;;;;28.38;19.13;;;;;;;18.87;69.12;95282.72;5047876;28;20494;-83
2022/09/01 06:57:16;;;;;;;28.17;18.55;;;;;;;18.98;68.88;95280.22;5047429;28;20516;-83
2022/09/01 06:59:41;;;;;;;26.48;20.05;;;;;;;18.95;68.81;95277.97;5047562;28;20025;-83
2022/09/01 07:02:07;;;;;;;28.13;19.00;;;;;;;19.00;69.02;95273.53;5047957;28;20021;-84
2022/09/01 07:04:33;;;;;;;26.52;19.95;;;;;;;19.17;68.23;95278.28;5047447;28;20135;-83
2022/09/01 07:06:59;;;;;;;28.60;21.13;;;;;;;19.18;68.29;95279.09;5048164;28;20028;-83
2022/09/01 07:09:25;;;;;;;24.83;19.70;;;;;;;19.30;68.09;95270.97;5047093;28;20514;-83
2022/09/01 07:11:51;;;;;;;26.83;19.23;;;;;;;19.41;67.68;95272.84;5047690;28;20477;-83
2022/09/01 07:14:18;;;;;;;36.65;20.35;;;;;;;19.61;67.17;95287.97;5047397;28;20021;-83
2022/09/01 07:16:43;;;;;;;30.67;20.58;;;;;;;19.56;67.38;95282.41;5047506;28;20079;-83
2022/09/01 07:19:13;;;;;;;37.55;21.02;;;;;;;19.46;67.21;95285.75;5047271;28;20025;-83
2022/09/01 07:21:39;;;;;;;34.42;21.23;;;;;;;19.58;67.00;95278.41;5052417;28;20028;-83
2022/09/01 07:24:05;;;;;;;33.83;21.38;;;;;;;19.80;66.52;95285.94;5052990;28;20021;-83
2022/09/01 07:26:34;;;;;;;29.92;20.52;;;;;;;19.95;65.93;95287.31;5046820;28;20126;-83
2022/09/01 07:29:02;;;;;;;32.10;20.20;;;;;;;20.11;65.46;95281.16;5047581;28;20025;-83
2022/09/01 07:31:34;;;;;;;27.88;20.80;;;;;;;19.97;65.86;95279.75;5046201;28;20094;-84
2022/09/01 07:34:03;;;;;;;;;;;;;;;20.20;65.05;95275.34;5047527;28;20543;-84
2022/09/01 07:36:28;;;;;;;25.65;20.45;;;;;;;20.32;65.20;95276.13;5044467;28;20366;-81
2022/09/01 07:38:54;;;;;;;31.23;20.02;;;;;;;20.55;65.07;95277.09;5046946;28;20059;-83
2022/09/01 07:41:20;;;;;;;27.27;19.85;;;;;;;20.77;63.93;95273.63;5046606;28;20474;-83
2022/09/01 07:43:47;;;;;;;31.77;20.58;;;;;;;20.89;62.44;95273.59;5046235;28;20509;-82
2022/09/01 07:46:13;;;;;;;30.45;19.55;;;;;;;21.10;61.96;95268.50;5046883;28;20033;-83
2022/09/01 07:48:38;;;;;;;28.70;18.73;;;;;;;21.27;62.34;95276.66;5046132;28;20025;-83
2022/09/01 07:51:04;;;;;;;23.70;19.30;;;;;;;21.38;61.80;95265.91;5046794;28;20025;-83
2022/09/01 07:53:31;;;;;;;22.50;17.85;;;;;;;21.27;62.04;95270.38;5046091;28;20041;-83
2022/09/01 07:55:59;;;;;;;22.42;18.30;;;;;;;21.10;62.99;95268.50;5046733;28;20056;-84
2022/09/01 07:58:25;;;;;;;24.23;18.70;;;;;;;21.26;62.54;95271.44;5046603;28;20624;-83
2022/09/01 08:00:52;;;;;;;26.58;18.67;;;;;;;21.16;62.71;95274.84;5046215;28;20025;-84
2022/09/01 08:03:19;;;;;;;24.98;17.52;;;;;;;21.23;62.30;95278.25;5046896;28;20040;-84
2022/09/01 08:05:46;;;;;;;24.00;16.60;;;;;;;21.19;63.01;95266.16;5045896;28;20059;-84
2022/09/01 08:08:12;;;;;;;25.90;17.73;;;;;;;21.27;62.80;95270.38;5046720;28;20021;-84
2022/09/01 08:10:39;;;;;;;21.00;17.42;;;;;;;21.25;62.46;95273.34;5046244;28;20052;-83
2022/09/01 08:13:04;;;;;;;21.10;17.15;;;;;;;21.39;61.95;95264.81;5046256;28;20526;-84
2022/09/01 08:15:30;;;;;;;19.33;17.10;;;;;;;21.57;61.73;95261.81;5045807;28;20033;-83
2022/09/01 08:17:55;;;;;;;18.48;15.77;;;;;;;21.57;62.11;95266.47;5046418;28;20619;-84
2022/09/01 08:20:21;;;;;;;21.10;16.40;;;;;;;21.36;62.17;95266.16;5046017;28;20032;-84
2022/09/01 08:22:46;;;;;;;18.65;16.08;;;;;;;21.43;62.07;95265.97;5046129;28;20033;-84
2022/09/01 08:25:11;;;;;;;19.75;15.15;;;;;;;21.55;61.66;95257.69;5046823;28;20558;-84
2022/09/01 08:27:40;;;;;;;18.23;13.60;;;;;;;21.78;61.16;95258.59;5045647;28;20021;-83
2022/09/01 08:30:08;;;;;;;15.45;12.75;;;;;;;22.05;59.70;95258.66;5046231;28;20102;-84
2022/09/01 08:32:34;;;;;;;19.52;14.32;;;;;;;22.04;59.53;95248.00;5045939;28;20036;-83
2022/09/01 08:34:59;;;;;;;19.30;15.30;;;;;;;22.15;59.64;95243.47;5046388;28;20075;-84
2022/09/01 08:37:25;;;;;;;20.77;14.63;;;;;;;22.34;59.20;95246.69;5045776;28;20060;-84
2022/09/01 08:39:51;;;;;;;18.13;14.55;;;;;;;22.19;59.39;95250.06;5046081;28;20025;-82
2022/09/01 08:42:53;;;;;;;18.02;14.32;;;;;;;22.16;59.30;95239.63;5046062;28;20045;-83
2022/09/01 08:45:41;;;;;;;18.42;14.02;;;;;;;21.96;59.90;95232.84;5045208;28;20037;-84
2022/09/01 08:48:11;;;;;;;17.02;13.60;;;;;;;22.06;59.18;95235.72;5028188;28;20063;-82
2022/09/01 08:50:37;;;;;;;17.30;13.57;;;;;;;22.16;59.02;95234.19;5044658;28;20027;-83
2022/09/01 08:53:16;;;;;;;16.67;12.95;;;;;;;22.41;58.44;95219.16;5047315;28;20021;-82
2022/09/01 08:55:43;;;;;;;18.05;13.40;;;;;;;22.23;58.30;95218.44;5049160;28;20025;-83
2022/09/01 08:58:09;;;;;;;18.42;13.38;;;;;;;22.37;58.36;95207.91;5027355;28;20029;-83
2022/09/01 09:00:41;;;;;;;17.08;12.60;;;;;;;22.91;56.62;95217.16;5028208;28;20032;-82
2022/09/01 09:03:25;;;;;;;20.98;14.10;;;;;;;22.82;56.75;95203.16;5028213;28;20029;-83
2022/09/01 09:05:56;;;;;;;15.77;12.25;;;;;;;22.97;56.30;95204.38;5045536;28;20040;-83
2022/09/01 09:08:58;;;;;;;18.95;11.38;;;;;;;23.43;54.61;95195.66;5045924;28;20040;-83
2022/09/01 09:11:45;;;;;;;14.15;10.57;;;;;;;23.50;55.03;95198.16;5045145;28;20035;-83
2022/09/01 09:14:47;;;;;;;13.77;10.55;;;;;;;23.74;53.16;95202.38;5045784;28;20047;-83
2022/09/01 09:17:13;;;;;;;12.13;10.40;;;;;;;23.52;52.30;95195.97;5046475;28;20530;-84
2022/09/01 09:19:40;;;;;;;15.88;10.90;;;;;;;23.40;53.72;95190.72;5027347;28;20045;-84
2022/09/01 09:22:10;;;;;;;16.77;11.63;;;;;;;23.16;54.81;95193.84;5044871;28;20033;-83
2022/09/01 09:24:51;;;;;;;18.80;11.00;;;;;;;23.08;55.01;95188.84;5044776;28;20025;-83
2022/09/01 09:27:19;;;;;;;16.02;11.23;;;;;;;23.16;55.25;95184.78;5046070;28;20126;-84
2022/09/01 09:29:47;;;;;;;14.07;11.13;;;;;;;23.11;54.92;95188.31;5045773;28;20029;-83
2022/09/01 09:32:12;;;;;;;15.95;10.23;;;;;;;23.44;52.88;95180.88;5045918;28;20029;-83
2022/09/01 09:34:39;;;;;;;17.95;10.60;;;;;;;23.55;52.09;95180.94;5045890;28;20036;-84
2022/09/01 09:37:23;;;;;;;18.27;10.40;;;;;;;23.59;52.43;95184.78;5043537;28;20561;-83
2022/09/01 09:40:04;;;;;;;12.10;9.32;;;;;;;23.81;52.05;95179.13;5045795;28;20040;-83
2022/09/01 09:42:29;;;;;;;12.30;9.70;;;;;;;24.00;52.48;95175.09;5045158;28;20466;-83
2022/09/01 09:44:55;;;;;;;18.35;9.90;;;;;;;24.30;51.76;95171.63;5045574;28;20585;-83
2022/09/01 09:47:37;;;;;;;11.25;9.60;;;;;;;24.82;52.05;95168.09;5028182;28;20064;-83
2022/09/01 09:50:16;;;;;;;11.68;9.15;;;;;;;24.86;50.20;95169.19;5044809;28;20029;-83
2022/09/01 09:52:43;;;;;;;14.13;9.48;;;;;;;24.74;50.48;95166.72;5045786;28;20102;-83
2022/09/01 09:55:22;;;;;;;13.88;9.00;;;;;;;24.96;49.90;95165.66;5045054;28;20071;-84
2022/09/01 09:57:48;;;;;;;15.07;9.98;;;;;;;25.04;48.35;95165.09;5045444;28;20124;-83
2022/09/01 10:00:25;;;;;;;11.27;8.90;;;;;;;25.04;48.84;95156.88;5049085;28;20104;-83
2022/09/01 10:03:01;;;;;;;13.07;9.30;;;;;;;24.98;48.56;95155.22;5048267;28;20068;-83
2022/09/01 10:05:47;;;;;;;15.98;8.85;;;;;;;24.92;47.85;95151.66;5049532;28;20116;-84
2022/09/01 10:08:33;;;;;;;12.25;9.07;;;;;;;24.80;47.76;95146.44;5049009;28;20025;-83
2022/09/01 10:10:58;;;;;;;13.82;9.68;;;;;;;24.60;48.66;95152.72;5048812;28;20505;-83
2022/09/01 10:13:24;;;;;;;13.13;10.77;;;;;;;24.60;48.49;95154.66;5047963;28;20029;-84
2022/09/01 10:15:52;;;;;;;10.48;9.13;;;;;;;24.75;49.42;95146.44;5046986;28;20558;-83
2022/09/01 10:18:20;;;;;;;14.05;9.55;;;;;;;25.09;47.77;95147.81;5048890;28;20036;-83
2022/09/01 10:21:10;;;;;;;11.13;8.73;;;;;;;25.37;45.69;95144.72;5048012;28;20074;-83
2022/09/01 10:23:36;;;;;;;12.65;8.95;;;;;;;25.47;45.71;95138.38;5048760;28;20040;-83
2022/09/01 10:26:08;;;;;;;10.00;7.95;;;;;;;25.47;45.94;95133.69;5048918;28;20406;-83
2022/09/01 10:28:45;;;;;;;13.68;8.35;;;;;;;25.49;44.60;95136.19;5030960;28;20136;-83
2022/09/01 10:31:10;;;;;;;14.93;8.50;;;;;;;25.43;44.65;95132.63;5031270;28;20124;-83
2022/09/01 10:33:36;;;;;;;10.98;8.95;;;;;;;25.39;44.45;95128.81;5048083;28;20013;-83
2022/09/01 10:36:02;;;;;;;14.25;8.93;;;;;;;25.39;45.69;95126.06;5048947;28;20014;-84
2022/09/01 10:38:28;;;;;;;10.20;8.43;;;;;;;25.56;44.37;95128.47;5029932;28;20033;-84
2022/09/01 10:41:06;;;;;;;9.45;8.10;;;;;;;25.44;44.49;95126.03;5046667;28;20033;-83
2022/09/01 10:43:39;;;;;;;15.32;8.73;;;;;;;25.63;44.13;95128.19;5046946;28;20056;-83
2022/09/01 10:46:17;;;;;;;12.63;8.60;;;;;;;25.75;43.72;95123.19;5047848;28;20482;-83
2022/09/01 10:48:42;;;;;;;11.38;8.07;;;;;;;25.75;43.20;95125.94;5049621;28;20052;-83
2022/09/01 10:51:14;;;;;;;10.80;7.75;;;;;;;25.80;42.41;95119.59;5047087;28;20041;-83
2022/09/01 10:53:41;;;;;;;11.88;7.95;;;;;;;25.91;43.64;95114.84;5048397;28;20111;-83
2022/09/01 10:56:27;;;;;;;9.70;7.57;;;;;;;25.96;44.32;95112.09;5047765;28;20445;-83
2022/09/01 10:59:14;;;;;;;18.65;8.68;;;;;;;26.10;43.11;95114.22;5046189;28;20025;-83
2022/09/01 11:01:39;;;;;;;10.77;8.55;;;;;;;26.04;42.60;95107.91;5048496;28;20082;-83
2022/09/01 11:04:31;;;;;;;15.52;8.35;;;;;;;26.02;42.74;95097.22;5045563;28;20123;-83
2022/09/01 11:07:00;;;;;;;16.70;8.65;;;;;;;25.97;43.06;95100.00;5046416;28;20045;-83
2022/09/01 11:09:59;;;;;;;11.35;8.07;;;;;;;26.10;43.18;95098.53;5046504;28;20078;-83
2022/09/01 11:13:03;;;;;;;11.65;7.97;;;;;;;26.23;42.02;95097.06;5045101;28;20045;-83
2022/09/01 11:15:39;;;;;;;11.65;7.65;;;;;;;26.36;40.70;95097.59;5046279;28;20488;-82
2022/09/01 11:18:09;;;;;;;9.23;7.07;;;;;;;26.36;39.55;95094.84;5046817;28;20488;-85
2022/09/01 11:20:36;;;;;;;10.48;7.88;;;;;;;26.38;40.49;95092.59;5047376;28;20021;-83
2022/09/01 11:23:20;;;;;;;10.40;7.25;;;;;;;26.52;40.62;95090.03;5047592;28;20404;-84
2022/09/01 11:26:27;;;;;;;8.88;6.75;;;;;;;26.61;39.90;95090.22;5046585;28;20103;-82
2022/09/01 11:28:53;;;;;;;8.93;6.63;;;;;;;26.74;39.04;95086.81;5045954;28;20052;-82
2022/09/01 11:31:25;;;;;;;11.60;6.53;;;;;;;26.65;38.67;95075.59;5045552;28;20029;-83
2022/09/01 11:33:59;;;;;;;8.65;6.75;;;;;;;26.23;39.48;95082.53;5046634;28;20036;-83
2022/09/01 11:36:33;;;;;;;8.27;7.00;;;;;;;26.49;39.57;95068.59;5046391;28;20028;-82